sensor_id;sensor_type;location;lat;lon;timestamp;P1;durP1;ratioP1;P2;durP2;ratioP2
9986;SDS011;5033;46.310;11.214;2023-01-24T00:01:18;4.05;;;3.70;;
9986;SDS011;5033;46.310;11.214;2023-01-24T00:03:45;4.28;;;3.97;;
9986;SDS011;5033;46.310;11.214;2023-01-24T00:06:13;3.75;;;3.55;;
9986;SDS011;5033;46.310;11.214;2023-01-24T00:08:40;4.50;;;4.20;;
9986;SDS011;5033;46.310;11.214;2023-01-24T00:11:08;3.80;;;3.58;;
9986;SDS011;5033;46.310;11.214;2023-01-24T00:13:37;3.78;;;3.47;;
9986;SDS011;5033;46.310;11.214;2023-01-24T00:16:07;4.57;;;4.18;;
9986;SDS011;5033;46.310;11.214;2023-01-24T00:18:35;3.70;;;3.50;;
9986;SDS011;5033;46.310;11.214;2023-01-24T00:21:03;4.28;;;3.97;;
9986;SDS011;5033;46.310;11.214;2023-01-24T00:23:34;4.10;;;3.85;;
9986;SDS011;5033;46.310;11.214;2023-01-24T00:26:01;4.30;;;4.00;;
9986;SDS011;5033;46.310;11.214;2023-01-24T00:28:29;4.32;;;4.10;;
9986;SDS011;5033;46.310;11.214;2023-01-24T00:30:56;4.50;;;4.20;;
9986;SDS011;5033;46.310;11.214;2023-01-24T00:33:24;4.40;;;4.10;;
9986;SDS011;5033;46.310;11.214;2023-01-24T00:35:52;4.18;;;3.88;;
9986;SDS011;5033;46.310;11.214;2023-01-24T00:38:19;4.18;;;3.88;;
9986;SDS011;5033;46.310;11.214;2023-01-24T00:40:47;4.43;;;4.13;;
9986;SDS011;5033;46.310;11.214;2023-01-24T00:43:14;4.53;;;4.13;;
9986;SDS011;5033;46.310;11.214;2023-01-24T00:45:42;4.03;;;3.72;;
9986;SDS011;5033;46.310;11.214;2023-01-24T00:48:10;3.70;;;3.50;;
9986;SDS011;5033;46.310;11.214;2023-01-24T00:50:40;4.00;;;3.70;;
9986;SDS011;5033;46.310;11.214;2023-01-24T00:53:07;3.63;;;3.42;;
9986;SDS011;5033;46.310;11.214;2023-01-24T00:55:39;4.05;;;3.78;;
9986;SDS011;5033;46.310;11.214;2023-01-24T00:58:07;3.35;;;3.15;;
9986;SDS011;5033;46.310;11.214;2023-01-24T01:00:34;4.63;;;4.32;;
9986;SDS011;5033;46.310;11.214;2023-01-24T01:03:05;3.97;;;3.78;;
9986;SDS011;5033;46.310;11.214;2023-01-24T01:05:32;3.75;;;3.55;;
9986;SDS011;5033;46.310;11.214;2023-01-24T01:08:01;3.90;;;3.60;;
9986;SDS011;5033;46.310;11.214;2023-01-24T01:10:28;3.90;;;3.60;;
9986;SDS011;5033;46.310;11.214;2023-01-24T01:12:56;3.95;;;3.75;;
9986;SDS011;5033;46.310;11.214;2023-01-24T01:15:23;3.85;;;3.55;;
9986;SDS011;5033;46.310;11.214;2023-01-24T01:17:50;4.13;;;3.83;;
9986;SDS011;5033;46.310;11.214;2023-01-24T01:20:17;4.50;;;4.20;;
9986;SDS011;5033;46.310;11.214;2023-01-24T01:22:44;4.20;;;3.92;;
9986;SDS011;5033;46.310;11.214;2023-01-24T01:25:13;3.92;;;3.67;;
9986;SDS011;5033;46.310;11.214;2023-01-24T01:27:40;4.40;;;4.10;;
9986;SDS011;5033;46.310;11.214;2023-01-24T01:30:07;3.70;;;3.50;;
9986;SDS011;5033;46.310;11.214;2023-01-24T01:32:35;3.70;;;3.50;;
9986;SDS011;5033;46.310;11.214;2023-01-24T01:35:02;4.20;;;3.90;;
9986;SDS011;5033;46.310;11.214;2023-01-24T01:37:30;4.40;;;4.10;;
9986;SDS011;5033;46.310;11.214;2023-01-24T01:39:57;4.53;;;4.22;;
9986;SDS011;5033;46.310;11.214;2023-01-24T01:42:25;4.60;;;4.30;;
9986;SDS011;5033;46.310;11.214;2023-01-24T01:44:52;3.97;;;3.78;;
9986;SDS011;5033;46.310;11.214;2023-01-24T01:47:24;4.47;;;4.18;;
9986;SDS011;5033;46.310;11.214;2023-01-24T01:49:54;4.00;;;3.70;;
9986;SDS011;5033;46.310;11.214;2023-01-24T01:52:26;4.35;;;4.05;;
9986;SDS011;5033;46.310;11.214;2023-01-24T01:54:57;3.83;;;3.58;;
9986;SDS011;5033;46.310;11.214;2023-01-24T01:57:28;4.30;;;4.05;;
9986;SDS011;5033;46.310;11.214;2023-01-24T01:59:58;4.78;;;4.38;;
9986;SDS011;5033;46.310;11.214;2023-01-24T02:02:29;4.30;;;4.07;;
9986;SDS011;5033;46.310;11.214;2023-01-24T02:04:59;4.55;;;4.25;;
9986;SDS011;5033;46.310;11.214;2023-01-24T02:07:30;4.20;;;3.80;;
9986;SDS011;5033;46.310;11.214;2023-01-24T02:10:00;4.00;;;3.80;;
9986;SDS011;5033;46.310;11.214;2023-01-24T02:12:30;3.70;;;3.50;;
9986;SDS011;5033;46.310;11.214;2023-01-24T02:15:03;3.58;;;3.38;;
9986;SDS011;5033;46.310;11.214;2023-01-24T02:17:49;4.20;;;3.90;;
9986;SDS011;5033;46.310;11.214;2023-01-24T02:20:30;3.83;;;3.55;;
9986;SDS011;5033;46.310;11.214;2023-01-24T02:23:05;4.55;;;4.25;;
9986;SDS011;5033;46.310;11.214;2023-01-24T02:25:51;4.15;;;3.95;;
9986;SDS011;5033;46.310;11.214;2023-01-24T02:28:28;4.28;;;3.97;;
9986;SDS011;5033;46.310;11.214;2023-01-24T02:30:56;4.15;;;3.95;;
9986;SDS011;5033;46.310;11.214;2023-01-24T02:33:23;3.47;;;3.28;;
9986;SDS011;5033;46.310;11.214;2023-01-24T02:35:50;4.95;;;4.55;;
9986;SDS011;5033;46.310;11.214;2023-01-24T02:38:33;4.70;;;4.40;;
9986;SDS011;5033;46.310;11.214;2023-01-24T02:41:01;4.90;;;4.57;;
9986;SDS011;5033;46.310;11.214;2023-01-24T02:43:31;3.92;;;3.72;;
9986;SDS011;5033;46.310;11.214;2023-01-24T02:46:02;4.20;;;3.90;;
9986;SDS011;5033;46.310;11.214;2023-01-24T02:48:30;5.40;;;5.00;;
9986;SDS011;5033;46.310;11.214;2023-01-24T02:50:57;4.38;;;4.07;;
9986;SDS011;5033;46.310;11.214;2023-01-24T02:53:41;4.32;;;4.03;;
9986;SDS011;5033;46.310;11.214;2023-01-24T02:56:09;4.50;;;4.20;;
9986;SDS011;5033;46.310;11.214;2023-01-24T02:58:54;4.03;;;3.78;;
9986;SDS011;5033;46.310;11.214;2023-01-24T03:01:22;3.60;;;3.40;;
9986;SDS011;5033;46.310;11.214;2023-01-24T03:03:50;4.20;;;3.90;;
9986;SDS011;5033;46.310;11.214;2023-01-24T03:06:17;4.03;;;3.72;;
9986;SDS011;5033;46.310;11.214;2023-01-24T03:08:45;3.75;;;3.55;;
9986;SDS011;5033;46.310;11.214;2023-01-24T03:11:13;3.97;;;3.75;;
9986;SDS011;5033;46.310;11.214;2023-01-24T03:13:40;4.35;;;4.05;;
9986;SDS011;5033;46.310;11.214;2023-01-24T03:16:24;4.05;;;3.75;;
9986;SDS011;5033;46.310;11.214;2023-01-24T03:19:09;3.70;;;3.50;;
9986;SDS011;5033;46.310;11.214;2023-01-24T03:21:53;3.97;;;3.78;;
9986;SDS011;5033;46.310;11.214;2023-01-24T03:24:38;4.03;;;3.72;;
9986;SDS011;5033;46.310;11.214;2023-01-24T03:27:24;4.72;;;4.43;;
9986;SDS011;5033;46.310;11.214;2023-01-24T03:30:08;5.10;;;4.50;;
9986;SDS011;5033;46.310;11.214;2023-01-24T03:32:57;4.35;;;4.05;;
9986;SDS011;5033;46.310;11.214;2023-01-24T03:35:42;5.07;;;4.68;;
9986;SDS011;5033;46.310;11.214;2023-01-24T03:38:19;4.78;;;4.47;;
9986;SDS011;5033;46.310;11.214;2023-01-24T03:41:04;4.53;;;4.13;;
9986;SDS011;5033;46.310;11.214;2023-01-24T03:43:33;4.32;;;4.03;;
9986;SDS011;5033;46.310;11.214;2023-01-24T03:46:00;4.80;;;4.40;;
9986;SDS011;5033;46.310;11.214;2023-01-24T03:48:27;4.55;;;4.25;;
9986;SDS011;5033;46.310;11.214;2023-01-24T03:51:01;3.72;;;3.53;;
9986;SDS011;5033;46.310;11.214;2023-01-24T03:53:47;3.92;;;3.72;;
9986;SDS011;5033;46.310;11.214;2023-01-24T03:56:14;4.55;;;4.25;;
9986;SDS011;5033;46.310;11.214;2023-01-24T03:58:42;4.65;;;4.35;;
9986;SDS011;5033;46.310;11.214;2023-01-24T04:01:09;4.13;;;3.92;;
9986;SDS011;5033;46.310;11.214;2023-01-24T04:03:36;4.10;;;3.90;;
9986;SDS011;5033;46.310;11.214;2023-01-24T04:06:04;4.47;;;4.18;;
9986;SDS011;5033;46.310;11.214;2023-01-24T04:08:31;3.80;;;3.60;;
9986;SDS011;5033;46.310;11.214;2023-01-24T04:10:58;3.90;;;3.70;;
9986;SDS011;5033;46.310;11.214;2023-01-24T04:13:25;4.80;;;4.50;;
9986;SDS011;5033;46.310;11.214;2023-01-24T04:15:54;4.10;;;3.80;;
9986;SDS011;5033;46.310;11.214;2023-01-24T04:18:21;4.55;;;4.25;;
9986;SDS011;5033;46.310;11.214;2023-01-24T04:20:48;4.00;;;3.80;;
9986;SDS011;5033;46.310;11.214;2023-01-24T04:23:15;3.80;;;3.60;;
9986;SDS011;5033;46.310;11.214;2023-01-24T04:25:42;4.10;;;3.80;;
9986;SDS011;5033;46.310;11.214;2023-01-24T04:28:19;4.63;;;4.32;;
9986;SDS011;5033;46.310;11.214;2023-01-24T04:30:46;4.25;;;3.95;;
9986;SDS011;5033;46.310;11.214;2023-01-24T04:33:15;4.07;;;3.78;;
9986;SDS011;5033;46.310;11.214;2023-01-24T04:35:42;4.40;;;4.10;;
9986;SDS011;5033;46.310;11.214;2023-01-24T04:38:09;4.85;;;4.50;;
9986;SDS011;5033;46.310;11.214;2023-01-24T04:40:36;3.92;;;3.72;;
9986;SDS011;5033;46.310;11.214;2023-01-24T04:43:03;4.47;;;4.18;;
9986;SDS011;5033;46.310;11.214;2023-01-24T04:45:30;4.57;;;4.28;;
9986;SDS011;5033;46.310;11.214;2023-01-24T04:47:57;4.50;;;4.20;;
9986;SDS011;5033;46.310;11.214;2023-01-24T04:50:26;4.45;;;4.15;;
9986;SDS011;5033;46.310;11.214;2023-01-24T04:52:53;4.57;;;4.28;;
9986;SDS011;5033;46.310;11.214;2023-01-24T04:55:20;4.45;;;4.20;;
9986;SDS011;5033;46.310;11.214;2023-01-24T04:57:47;4.30;;;4.10;;
9986;SDS011;5033;46.310;11.214;2023-01-24T05:00:15;4.40;;;4.10;;
9986;SDS011;5033;46.310;11.214;2023-01-24T05:02:42;4.45;;;4.15;;
9986;SDS011;5033;46.310;11.214;2023-01-24T05:05:09;4.63;;;4.32;;
9986;SDS011;5033;46.310;11.214;2023-01-24T05:07:38;4.70;;;4.40;;
9986;SDS011;5033;46.310;11.214;2023-01-24T05:10:05;4.15;;;3.85;;
9986;SDS011;5033;46.310;11.214;2023-01-24T05:12:33;4.97;;;4.68;;
9986;SDS011;5033;46.310;11.214;2023-01-24T05:15:00;5.03;;;4.63;;
9986;SDS011;5033;46.310;11.214;2023-01-24T05:17:27;6.03;;;5.53;;
9986;SDS011;5033;46.310;11.214;2023-01-24T05:19:54;5.43;;;4.93;;
9986;SDS011;5033;46.310;11.214;2023-01-24T05:22:21;6.13;;;5.63;;
9986;SDS011;5033;46.310;11.214;2023-01-24T05:24:50;6.10;;;5.53;;
9986;SDS011;5033;46.310;11.214;2023-01-24T05:27:17;5.68;;;5.18;;
9986;SDS011;5033;46.310;11.214;2023-01-24T05:29:44;6.53;;;6.00;;
9986;SDS011;5033;46.310;11.214;2023-01-24T05:32:11;6.22;;;5.65;;
9986;SDS011;5033;46.310;11.214;2023-01-24T05:34:38;5.15;;;4.75;;
9986;SDS011;5033;46.310;11.214;2023-01-24T05:37:05;6.38;;;5.72;;
9986;SDS011;5033;46.310;11.214;2023-01-24T05:39:32;5.50;;;5.10;;
9986;SDS011;5033;46.310;11.214;2023-01-24T05:42:00;5.30;;;4.90;;
9986;SDS011;5033;46.310;11.214;2023-01-24T05:44:27;4.70;;;4.40;;
9986;SDS011;5033;46.310;11.214;2023-01-24T05:46:55;4.78;;;4.47;;
9986;SDS011;5033;46.310;11.214;2023-01-24T05:49:22;4.82;;;4.45;;
9986;SDS011;5033;46.310;11.214;2023-01-24T05:51:49;4.60;;;4.30;;
9986;SDS011;5033;46.310;11.214;2023-01-24T05:54:16;4.43;;;4.13;;
9986;SDS011;5033;46.310;11.214;2023-01-24T05:56:44;4.90;;;4.60;;
9986;SDS011;5033;46.310;11.214;2023-01-24T05:59:12;4.50;;;4.20;;
9986;SDS011;5033;46.310;11.214;2023-01-24T06:01:39;4.43;;;4.20;;
9986;SDS011;5033;46.310;11.214;2023-01-24T06:04:07;3.90;;;3.60;;
9986;SDS011;5033;46.310;11.214;2023-01-24T06:06:34;4.35;;;4.03;;
9986;SDS011;5033;46.310;11.214;2023-01-24T06:09:01;4.50;;;4.20;;
9986;SDS011;5033;46.310;11.214;2023-01-24T06:11:28;3.80;;;3.60;;
9986;SDS011;5033;46.310;11.214;2023-01-24T06:13:58;4.20;;;3.85;;
9986;SDS011;5033;46.310;11.214;2023-01-24T06:16:26;5.22;;;4.75;;
9986;SDS011;5033;46.310;11.214;2023-01-24T06:18:54;5.13;;;4.72;;
9986;SDS011;5033;46.310;11.214;2023-01-24T06:21:24;4.95;;;4.55;;
9986;SDS011;5033;46.310;11.214;2023-01-24T06:24:02;5.05;;;4.65;;
9986;SDS011;5033;46.310;11.214;2023-01-24T06:26:30;4.45;;;4.15;;
9986;SDS011;5033;46.310;11.214;2023-01-24T06:28:58;5.32;;;4.93;;
9986;SDS011;5033;46.310;11.214;2023-01-24T06:31:29;4.68;;;4.38;;
9986;SDS011;5033;46.310;11.214;2023-01-24T06:34:06;4.90;;;4.55;;
9986;SDS011;5033;46.310;11.214;2023-01-24T06:36:51;5.25;;;4.85;;
9986;SDS011;5033;46.310;11.214;2023-01-24T06:39:26;5.05;;;4.65;;
9986;SDS011;5033;46.310;11.214;2023-01-24T06:41:54;4.80;;;4.40;;
9986;SDS011;5033;46.310;11.214;2023-01-24T06:44:22;4.68;;;4.38;;
9986;SDS011;5033;46.310;11.214;2023-01-24T06:46:52;5.13;;;4.80;;
9986;SDS011;5033;46.310;11.214;2023-01-24T06:49:19;4.80;;;4.50;;
9986;SDS011;5033;46.310;11.214;2023-01-24T06:51:48;4.88;;;4.47;;
9986;SDS011;5033;46.310;11.214;2023-01-24T06:54:16;4.57;;;4.28;;
9986;SDS011;5033;46.310;11.214;2023-01-24T06:56:43;5.57;;;5.07;;
9986;SDS011;5033;46.310;11.214;2023-01-24T06:59:10;5.57;;;5.18;;
9986;SDS011;5033;46.310;11.214;2023-01-24T07:01:37;5.60;;;5.20;;
9986;SDS011;5033;46.310;11.214;2023-01-24T07:04:05;3.92;;;3.67;;
9986;SDS011;5033;46.310;11.214;2023-01-24T07:06:32;5.10;;;4.80;;
9986;SDS011;5033;46.310;11.214;2023-01-24T07:08:59;4.13;;;3.85;;
9986;SDS011;5033;46.310;11.214;2023-01-24T07:11:27;4.93;;;4.63;;
9986;SDS011;5033;46.310;11.214;2023-01-24T07:13:54;4.38;;;4.10;;
9986;SDS011;5033;46.310;11.214;2023-01-24T07:16:21;4.10;;;3.80;;
9986;SDS011;5033;46.310;11.214;2023-01-24T07:18:48;4.78;;;4.53;;
9986;SDS011;5033;46.310;11.214;2023-01-24T07:21:17;4.55;;;4.25;;
9986;SDS011;5033;46.310;11.214;2023-01-24T07:23:45;4.30;;;4.00;;
9986;SDS011;5033;46.310;11.214;2023-01-24T07:26:14;4.25;;;4.05;;
9986;SDS011;5033;46.310;11.214;2023-01-24T07:28:42;4.60;;;4.30;;
9986;SDS011;5033;46.310;11.214;2023-01-24T07:31:10;5.30;;;4.90;;
9986;SDS011;5033;46.310;11.214;2023-01-24T07:33:41;4.03;;;3.72;;
9986;SDS011;5033;46.310;11.214;2023-01-24T07:36:11;4.97;;;4.57;;
9986;SDS011;5033;46.310;11.214;2023-01-24T07:38:41;5.70;;;5.20;;
9986;SDS011;5033;46.310;11.214;2023-01-24T07:41:09;5.97;;;5.50;;
9986;SDS011;5033;46.310;11.214;2023-01-24T07:43:36;6.57;;;5.53;;
9986;SDS011;5033;46.310;11.214;2023-01-24T07:46:03;6.82;;;6.22;;
9986;SDS011;5033;46.310;11.214;2023-01-24T07:48:31;6.70;;;6.10;;
9986;SDS011;5033;46.310;11.214;2023-01-24T07:50:58;7.03;;;6.32;;
9986;SDS011;5033;46.310;11.214;2023-01-24T07:53:26;6.95;;;6.28;;
9986;SDS011;5033;46.310;11.214;2023-01-24T07:55:54;6.45;;;5.85;;
9986;SDS011;5033;46.310;11.214;2023-01-24T07:58:24;6.80;;;6.20;;
9986;SDS011;5033;46.310;11.214;2023-01-24T08:00:51;6.68;;;5.97;;
9986;SDS011;5033;46.310;11.214;2023-01-24T08:03:18;11.23;;;9.63;;
9986;SDS011;5033;46.310;11.214;2023-01-24T08:05:45;11.80;;;10.45;;
9986;SDS011;5033;46.310;11.214;2023-01-24T08:08:13;11.80;;;9.98;;
9986;SDS011;5033;46.310;11.214;2023-01-24T08:10:40;10.00;;;9.00;;
9986;SDS011;5033;46.310;11.214;2023-01-24T08:13:08;8.52;;;7.63;;
9986;SDS011;5033;46.310;11.214;2023-01-24T08:15:35;7.82;;;7.03;;
9986;SDS011;5033;46.310;11.214;2023-01-24T08:18:02;8.50;;;7.40;;
9986;SDS011;5033;46.310;11.214;2023-01-24T08:20:30;7.30;;;6.70;;
9986;SDS011;5033;46.310;11.214;2023-01-24T08:22:57;8.30;;;7.45;;
9986;SDS011;5033;46.310;11.214;2023-01-24T08:25:25;7.28;;;6.68;;
9986;SDS011;5033;46.310;11.214;2023-01-24T08:27:53;7.07;;;6.47;;
9986;SDS011;5033;46.310;11.214;2023-01-24T08:30:21;7.32;;;6.72;;
9986;SDS011;5033;46.310;11.214;2023-01-24T08:32:48;5.90;;;5.40;;
9986;SDS011;5033;46.310;11.214;2023-01-24T08:35:24;7.13;;;6.53;;
9986;SDS011;5033;46.310;11.214;2023-01-24T08:37:51;6.47;;;5.97;;
9986;SDS011;5033;46.310;11.214;2023-01-24T08:40:20;6.70;;;6.10;;
9986;SDS011;5033;46.310;11.214;2023-01-24T08:42:47;6.68;;;6.18;;
9986;SDS011;5033;46.310;11.214;2023-01-24T08:45:14;6.30;;;5.80;;
9986;SDS011;5033;46.310;11.214;2023-01-24T08:47:43;5.88;;;5.38;;
9986;SDS011;5033;46.310;11.214;2023-01-24T08:50:10;6.28;;;5.78;;
9986;SDS011;5033;46.310;11.214;2023-01-24T08:52:41;5.13;;;4.60;;
9986;SDS011;5033;46.310;11.214;2023-01-24T08:55:08;6.93;;;5.55;;
9986;SDS011;5033;46.310;11.214;2023-01-24T08:57:36;6.35;;;5.85;;
9986;SDS011;5033;46.310;11.214;2023-01-24T09:00:03;7.05;;;6.35;;
9986;SDS011;5033;46.310;11.214;2023-01-24T09:02:31;7.20;;;6.60;;
9986;SDS011;5033;46.310;11.214;2023-01-24T09:05:03;6.65;;;6.10;;
9986;SDS011;5033;46.310;11.214;2023-01-24T09:07:31;6.75;;;6.15;;
9986;SDS011;5033;46.310;11.214;2023-01-24T09:09:59;6.78;;;6.25;;
9986;SDS011;5033;46.310;11.214;2023-01-24T09:12:26;6.65;;;6.05;;
9986;SDS011;5033;46.310;11.214;2023-01-24T09:14:53;5.70;;;5.30;;
9986;SDS011;5033;46.310;11.214;2023-01-24T09:17:20;7.15;;;6.45;;
9986;SDS011;5033;46.310;11.214;2023-01-24T09:19:47;6.82;;;6.22;;
9986;SDS011;5033;46.310;11.214;2023-01-24T09:22:16;6.00;;;5.50;;
9986;SDS011;5033;46.310;11.214;2023-01-24T09:24:43;7.65;;;6.25;;
9986;SDS011;5033;46.310;11.214;2023-01-24T09:27:10;6.47;;;5.97;;
9986;SDS011;5033;46.310;11.214;2023-01-24T09:29:37;6.40;;;5.80;;
9986;SDS011;5033;46.310;11.214;2023-01-24T09:32:05;6.32;;;5.80;;
9986;SDS011;5033;46.310;11.214;2023-01-24T09:34:32;6.03;;;5.50;;
9986;SDS011;5033;46.310;11.214;2023-01-24T09:36:59;6.20;;;5.80;;
9986;SDS011;5033;46.310;11.214;2023-01-24T09:39:28;6.35;;;5.75;;
9986;SDS011;5033;46.310;11.214;2023-01-24T09:41:58;6.00;;;5.60;;
9986;SDS011;5033;46.310;11.214;2023-01-24T09:44:33;6.25;;;5.63;;
9986;SDS011;5033;46.310;11.214;2023-01-24T09:47:10;6.82;;;6.22;;
9986;SDS011;5033;46.310;11.214;2023-01-24T09:49:49;5.78;;;5.28;;
9986;SDS011;5033;46.310;11.214;2023-01-24T09:52:23;5.72;;;5.25;;
9986;SDS011;5033;46.310;11.214;2023-01-24T09:54:56;6.65;;;6.05;;
9986;SDS011;5033;46.310;11.214;2023-01-24T09:57:28;6.30;;;5.75;;
9986;SDS011;5033;46.310;11.214;2023-01-24T10:00:00;6.75;;;6.05;;
9986;SDS011;5033;46.310;11.214;2023-01-24T10:02:31;7.28;;;6.18;;
9986;SDS011;5033;46.310;11.214;2023-01-24T10:04:58;6.22;;;5.72;;
9986;SDS011;5033;46.310;11.214;2023-01-24T10:07:33;6.68;;;6.03;;
9986;SDS011;5033;46.310;11.214;2023-01-24T10:13:35;6.43;;;5.93;;
9986;SDS011;5033;46.310;11.214;2023-01-24T10:16:31;6.95;;;6.35;;
9986;SDS011;5033;46.310;11.214;2023-01-24T10:19:14;7.05;;;6.45;;
9986;SDS011;5033;46.310;11.214;2023-01-24T10:21:56;6.55;;;6.05;;
9986;SDS011;5033;46.310;11.214;2023-01-24T10:24:40;6.95;;;6.35;;
9986;SDS011;5033;46.310;11.214;2023-01-24T10:27:15;7.60;;;6.90;;
9986;SDS011;5033;46.310;11.214;2023-01-24T10:29:50;8.15;;;7.45;;
9986;SDS011;5033;46.310;11.214;2023-01-24T10:32:26;8.27;;;7.13;;
9986;SDS011;5033;46.310;11.214;2023-01-24T10:34:58;6.65;;;6.05;;
9986;SDS011;5033;46.310;11.214;2023-01-24T10:37:31;7.18;;;6.57;;
9986;SDS011;5033;46.310;11.214;2023-01-24T10:40:09;5.97;;;5.40;;
9986;SDS011;5033;46.310;11.214;2023-01-24T10:42:37;6.25;;;5.68;;
9986;SDS011;5033;46.310;11.214;2023-01-24T10:45:16;5.70;;;5.30;;
9986;SDS011;5033;46.310;11.214;2023-01-24T10:47:54;6.25;;;5.75;;
9986;SDS011;5033;46.310;11.214;2023-01-24T10:50:31;7.53;;;5.78;;
9986;SDS011;5033;46.310;11.214;2023-01-24T10:53:07;6.30;;;5.80;;
9986;SDS011;5033;46.310;11.214;2023-01-24T10:55:38;6.40;;;5.80;;
9986;SDS011;5033;46.310;11.214;2023-01-24T10:58:17;6.28;;;5.78;;
9986;SDS011;5033;46.310;11.214;2023-01-24T11:00:48;6.45;;;5.85;;
9986;SDS011;5033;46.310;11.214;2023-01-24T11:03:23;5.95;;;5.45;;
9986;SDS011;5033;46.310;11.214;2023-01-24T11:05:54;6.75;;;6.10;;
9986;SDS011;5033;46.310;11.214;2023-01-24T11:08:23;7.72;;;6.35;;
9986;SDS011;5033;46.310;11.214;2023-01-24T11:10:52;5.95;;;5.45;;
9986;SDS011;5033;46.310;11.214;2023-01-24T11:13:28;8.75;;;6.35;;
9986;SDS011;5033;46.310;11.214;2023-01-24T11:16:01;6.47;;;5.88;;
9986;SDS011;5033;46.310;11.214;2023-01-24T11:18:31;6.57;;;5.80;;
9986;SDS011;5033;46.310;11.214;2023-01-24T11:21:06;11.32;;;6.00;;
9986;SDS011;5033;46.310;11.214;2023-01-24T11:23:35;5.95;;;5.45;;
9986;SDS011;5033;46.310;11.214;2023-01-24T11:26:03;6.65;;;6.00;;
9986;SDS011;5033;46.310;11.214;2023-01-24T11:28:32;5.90;;;5.30;;
9986;SDS011;5033;46.310;11.214;2023-01-24T11:31:01;5.13;;;4.72;;
9986;SDS011;5033;46.310;11.214;2023-01-24T11:33:33;5.63;;;5.13;;
9986;SDS011;5033;46.310;11.214;2023-01-24T11:36:16;6.10;;;5.53;;
9986;SDS011;5033;46.310;11.214;2023-01-24T11:38:53;6.10;;;5.50;;
9986;SDS011;5033;46.310;11.214;2023-01-24T11:41:26;5.93;;;5.25;;
9986;SDS011;5033;46.310;11.214;2023-01-24T11:44:17;5.78;;;5.00;;
9986;SDS011;5033;46.310;11.214;2023-01-24T11:47:06;5.72;;;5.30;;
9986;SDS011;5033;46.310;11.214;2023-01-24T11:49:41;5.85;;;5.07;;
9986;SDS011;5033;46.310;11.214;2023-01-24T11:52:33;5.70;;;5.20;;
9986;SDS011;5033;46.310;11.214;2023-01-24T11:58:18;5.43;;;5.03;;
9986;SDS011;5033;46.310;11.214;2023-01-24T12:00:54;5.60;;;5.10;;
9986;SDS011;5033;46.310;11.214;2023-01-24T12:03:32;7.88;;;5.30;;
9986;SDS011;5033;46.310;11.214;2023-01-24T12:06:14;5.40;;;4.90;;
9986;SDS011;5033;46.310;11.214;2023-01-24T12:08:55;5.60;;;5.10;;
9986;SDS011;5033;46.310;11.214;2023-01-24T12:11:33;5.55;;;4.50;;
9986;SDS011;5033;46.310;11.214;2023-01-24T12:17:12;6.03;;;4.88;;
9986;SDS011;5033;46.310;11.214;2023-01-24T12:19:52;4.28;;;3.90;;
9986;SDS011;5033;46.310;11.214;2023-01-24T12:22:33;6.43;;;4.15;;
9986;SDS011;5033;46.310;11.214;2023-01-24T12:25:02;4.53;;;4.13;;
9986;SDS011;5033;46.310;11.214;2023-01-24T12:27:37;4.97;;;4.53;;
9986;SDS011;5033;46.310;11.214;2023-01-24T12:30:07;5.40;;;4.47;;
9986;SDS011;5033;46.310;11.214;2023-01-24T12:32:42;5.88;;;4.25;;
9986;SDS011;5033;46.310;11.214;2023-01-24T12:35:19;5.20;;;4.75;;
9986;SDS011;5033;46.310;11.214;2023-01-24T12:37:51;5.50;;;4.47;;
9986;SDS011;5033;46.310;11.214;2023-01-24T12:40:23;5.45;;;4.43;;
9986;SDS011;5033;46.310;11.214;2023-01-24T12:43:03;4.97;;;4.63;;
9986;SDS011;5033;46.310;11.214;2023-01-24T12:45:39;4.03;;;3.63;;
9986;SDS011;5033;46.310;11.214;2023-01-24T12:48:12;4.25;;;3.95;;
9986;SDS011;5033;46.310;11.214;2023-01-24T12:50:46;4.90;;;4.50;;
9986;SDS011;5033;46.310;11.214;2023-01-24T12:53:20;4.72;;;4.18;;
9986;SDS011;5033;46.310;11.214;2023-01-24T12:55:52;5.43;;;4.93;;
9986;SDS011;5033;46.310;11.214;2023-01-24T12:58:26;8.05;;;4.82;;
9986;SDS011;5033;46.310;11.214;2023-01-24T13:01:01;4.90;;;4.50;;
9986;SDS011;5033;46.310;11.214;2023-01-24T13:03:54;4.65;;;4.25;;
9986;SDS011;5033;46.310;11.214;2023-01-24T13:06:34;4.82;;;4.40;;
9986;SDS011;5033;46.310;11.214;2023-01-24T13:09:13;4.80;;;4.40;;
9986;SDS011;5033;46.310;11.214;2023-01-24T13:11:48;4.28;;;3.88;;
9986;SDS011;5033;46.310;11.214;2023-01-24T13:14:19;5.65;;;4.47;;
9986;SDS011;5033;46.310;11.214;2023-01-24T13:17:04;4.45;;;4.10;;
9986;SDS011;5033;46.310;11.214;2023-01-24T13:19:53;4.40;;;4.00;;
9986;SDS011;5033;46.310;11.214;2023-01-24T13:22:40;12.68;;;3.92;;
9986;SDS011;5033;46.310;11.214;2023-01-24T13:25:30;4.25;;;3.85;;
9986;SDS011;5033;46.310;11.214;2023-01-24T13:28:11;4.28;;;3.97;;
9986;SDS011;5033;46.310;11.214;2023-01-24T13:30:47;4.57;;;4.03;;
9986;SDS011;5033;46.310;11.214;2023-01-24T13:33:22;5.05;;;3.90;;
9986;SDS011;5033;46.310;11.214;2023-01-24T13:35:54;4.07;;;3.78;;
9986;SDS011;5033;46.310;11.214;2023-01-24T13:38:23;4.50;;;4.10;;
9986;SDS011;5033;46.310;11.214;2023-01-24T13:40:57;3.47;;;3.20;;
9986;SDS011;5033;46.310;11.214;2023-01-24T13:49:30;3.20;;;3.00;;
9986;SDS011;5033;46.310;11.214;2023-01-24T13:52:06;3.78;;;3.47;;
9986;SDS011;5033;46.310;11.214;2023-01-24T13:58:27;3.55;;;3.30;;
9986;SDS011;5033;46.310;11.214;2023-01-24T14:00:56;3.58;;;3.28;;
9986;SDS011;5033;46.310;11.214;2023-01-24T14:03:26;5.15;;;3.42;;
9986;SDS011;5033;46.310;11.214;2023-01-24T14:06:03;4.60;;;3.70;;
9986;SDS011;5033;46.310;11.214;2023-01-24T14:08:42;4.45;;;4.05;;
9986;SDS011;5033;46.310;11.214;2023-01-24T14:14:02;4.35;;;3.80;;
9986;SDS011;5033;46.310;11.214;2023-01-24T14:19:56;3.90;;;3.60;;
9986;SDS011;5033;46.310;11.214;2023-01-24T14:22:37;3.55;;;3.25;;
9986;SDS011;5033;46.310;11.214;2023-01-24T14:25:20;3.20;;;3.00;;
9986;SDS011;5033;46.310;11.214;2023-01-24T14:28:00;3.78;;;3.47;;
9986;SDS011;5033;46.310;11.214;2023-01-24T14:30:33;4.43;;;4.13;;
9986;SDS011;5033;46.310;11.214;2023-01-24T14:33:04;3.75;;;3.42;;
9986;SDS011;5033;46.310;11.214;2023-01-24T14:35:48;4.65;;;3.72;;
9986;SDS011;5033;46.310;11.214;2023-01-24T14:38:21;3.67;;;3.22;;
9986;SDS011;5033;46.310;11.214;2023-01-24T14:40:50;3.22;;;2.97;;
9986;SDS011;5033;46.310;11.214;2023-01-24T14:43:18;5.28;;;3.70;;
9986;SDS011;5033;46.310;11.214;2023-01-24T14:45:46;3.88;;;3.47;;
9986;SDS011;5033;46.310;11.214;2023-01-24T14:48:16;3.50;;;3.20;;
9986;SDS011;5033;46.310;11.214;2023-01-24T14:50:55;4.00;;;3.70;;
9986;SDS011;5033;46.310;11.214;2023-01-24T14:53:24;6.10;;;5.50;;
9986;SDS011;5033;46.310;11.214;2023-01-24T14:55:55;14.05;;;9.85;;
9986;SDS011;5033;46.310;11.214;2023-01-24T14:58:26;7.20;;;6.30;;
9986;SDS011;5033;46.310;11.214;2023-01-24T15:00:55;6.45;;;5.78;;
9986;SDS011;5033;46.310;11.214;2023-01-24T15:03:24;6.97;;;5.28;;
9986;SDS011;5033;46.310;11.214;2023-01-24T15:05:54;4.47;;;4.07;;
9986;SDS011;5033;46.310;11.214;2023-01-24T15:08:23;5.63;;;5.07;;
9986;SDS011;5033;46.310;11.214;2023-01-24T15:11:00;5.78;;;5.15;;
9986;SDS011;5033;46.310;11.214;2023-01-24T15:13:30;8.02;;;6.45;;
9986;SDS011;5033;46.310;11.214;2023-01-24T15:15:59;9.73;;;6.97;;
9986;SDS011;5033;46.310;11.214;2023-01-24T15:18:43;7.85;;;6.30;;
9986;SDS011;5033;46.310;11.214;2023-01-24T15:21:16;7.55;;;6.20;;
9986;SDS011;5033;46.310;11.214;2023-01-24T15:23:54;7.25;;;6.53;;
9986;SDS011;5033;46.310;11.214;2023-01-24T15:26:34;5.93;;;5.30;;
9986;SDS011;5033;46.310;11.214;2023-01-24T15:32:00;5.55;;;5.05;;
9986;SDS011;5033;46.310;11.214;2023-01-24T15:34:28;6.20;;;5.60;;
9986;SDS011;5033;46.310;11.214;2023-01-24T15:36:57;6.00;;;5.40;;
9986;SDS011;5033;46.310;11.214;2023-01-24T15:39:26;8.40;;;5.68;;
9986;SDS011;5033;46.310;11.214;2023-01-24T15:41:54;5.68;;;5.18;;
9986;SDS011;5033;46.310;11.214;2023-01-24T15:44:43;6.47;;;4.88;;
9986;SDS011;5033;46.310;11.214;2023-01-24T15:47:17;6.68;;;5.97;;
9986;SDS011;5033;46.310;11.214;2023-01-24T15:50:12;11.52;;;10.43;;
9986;SDS011;5033;46.310;11.214;2023-01-24T15:53:10;9.13;;;8.23;;
9986;SDS011;5033;46.310;11.214;2023-01-24T15:55:37;7.47;;;6.78;;